<?xml version="1.0" encoding="UTF-8" standalone="no" ?>
<gpx xmlns="http://www.topografix.com/GPX/1/1" xmlns:xsi="http://www.w3.org/2001/XMLSchema-instance" xsi:schemaLocation="http://www.topografix.com/GPX/1/1 http://www.topografix.com/GPX/1/1/gpx.xsd" version="1.1" creator="VisuGPX - https://www.visugpx.com">
  <metadata>
    <name>visite de Tarbes</name>
    <desc><![CDATA[Balade jusqu\\\'au jardin Massey]]></desc>
  </metadata>
  <trk>
    <name><![CDATA[visite de Tarbes_1]]></name>
    <trkseg>
      <trkpt lat="43.21884" lon="0.07833">
        <ele>324.2</ele>
        <time>2012-06-13T14:29:37Z</time>
      </trkpt>
      <trkpt lat="43.21884" lon="0.07833">
        <ele>324.2</ele>
        <time>2012-06-13T14:29:37Z</time>
      </trkpt>
      <trkpt lat="43.21884" lon="0.07833">
        <ele>383.9</ele>
        <time>2012-06-13T14:29:38Z</time>
      </trkpt>
      <trkpt lat="43.21889" lon="0.07825">
        <ele>384</ele>
        <time>2012-06-13T14:29:44Z</time>
      </trkpt>
      <trkpt lat="43.21894" lon="0.07819">
        <ele>383.7</ele>
        <time>2012-06-13T14:29:50Z</time>
      </trkpt>
      <trkpt lat="43.21897" lon="0.07811">
        <ele>383.9</ele>
        <time>2012-06-13T14:29:56Z</time>
      </trkpt>
      <trkpt lat="43.21896" lon="0.07801">
        <ele>383.2</ele>
        <time>2012-06-13T14:30:02Z</time>
      </trkpt>
      <trkpt lat="43.21894" lon="0.07792">
        <ele>381.7</ele>
        <time>2012-06-13T14:30:10Z</time>
      </trkpt>
      <trkpt lat="43.21893" lon="0.07783">
        <ele>381.7</ele>
        <time>2012-06-13T14:30:16Z</time>
      </trkpt>
      <trkpt lat="43.21893" lon="0.07773">
        <ele>381.2</ele>
        <time>2012-06-13T14:30:22Z</time>
      </trkpt>
      <trkpt lat="43.21889" lon="0.07765">
        <ele>381.8</ele>
        <time>2012-06-13T14:30:29Z</time>
      </trkpt>
      <trkpt lat="43.21886" lon="0.07756">
        <ele>380.9</ele>
        <time>2012-06-13T14:31:07Z</time>
      </trkpt>
      <trkpt lat="43.21887" lon="0.07746">
        <ele>381.2</ele>
        <time>2012-06-13T14:31:13Z</time>
      </trkpt>
      <trkpt lat="43.21888" lon="0.07736">
        <ele>381.8</ele>
        <time>2012-06-13T14:31:18Z</time>
      </trkpt>
      <trkpt lat="43.21885" lon="0.07718">
        <ele>381.3</ele>
        <time>2012-06-13T14:31:28Z</time>
      </trkpt>
      <trkpt lat="43.21883" lon="0.077">
        <ele>374.5</ele>
        <time>2012-06-13T14:31:39Z</time>
      </trkpt>
      <trkpt lat="43.21882" lon="0.07691">
        <ele>374.2</ele>
        <time>2012-06-13T14:31:44Z</time>
      </trkpt>
      <trkpt lat="43.2188" lon="0.07682">
        <ele>375.2</ele>
        <time>2012-06-13T14:31:49Z</time>
      </trkpt>
      <trkpt lat="43.21878" lon="0.07673">
        <ele>376.4</ele>
        <time>2012-06-13T14:31:55Z</time>
      </trkpt>
      <trkpt lat="43.21875" lon="0.07655">
        <ele>376.3</ele>
        <time>2012-06-13T14:32:05Z</time>
      </trkpt>
      <trkpt lat="43.21874" lon="0.07646">
        <ele>377.8</ele>
        <time>2012-06-13T14:32:11Z</time>
      </trkpt>
      <trkpt lat="43.21873" lon="0.07636">
        <ele>376.5</ele>
        <time>2012-06-13T14:32:17Z</time>
      </trkpt>
      <trkpt lat="43.21874" lon="0.07627">
        <ele>376.6</ele>
        <time>2012-06-13T14:32:23Z</time>
      </trkpt>
      <trkpt lat="43.21868" lon="0.07608">
        <ele>375.9</ele>
        <time>2012-06-13T14:32:33Z</time>
      </trkpt>
      <trkpt lat="43.21865" lon="0.07599">
        <ele>377.8</ele>
        <time>2012-06-13T14:32:39Z</time>
      </trkpt>
      <trkpt lat="43.21864" lon="0.0758">
        <ele>378.1</ele>
        <time>2012-06-13T14:32:52Z</time>
      </trkpt>
      <trkpt lat="43.21864" lon="0.0757">
        <ele>377.4</ele>
        <time>2012-06-13T14:32:57Z</time>
      </trkpt>
      <trkpt lat="43.21862" lon="0.0756">
        <ele>378.4</ele>
        <time>2012-06-13T14:33:02Z</time>
      </trkpt>
      <trkpt lat="43.21862" lon="0.07541">
        <ele>377.8</ele>
        <time>2012-06-13T14:33:14Z</time>
      </trkpt>
      <trkpt lat="43.21861" lon="0.07531">
        <ele>375.3</ele>
        <time>2012-06-13T14:33:20Z</time>
      </trkpt>
      <trkpt lat="43.2186" lon="0.07522">
        <ele>376.1</ele>
        <time>2012-06-13T14:33:26Z</time>
      </trkpt>
      <trkpt lat="43.21862" lon="0.07513">
        <ele>372.8</ele>
        <time>2012-06-13T14:33:31Z</time>
      </trkpt>
      <trkpt lat="43.2186" lon="0.07494">
        <ele>373</ele>
        <time>2012-06-13T14:33:41Z</time>
      </trkpt>
      <trkpt lat="43.21858" lon="0.07475">
        <ele>373</ele>
        <time>2012-06-13T14:33:52Z</time>
      </trkpt>
      <trkpt lat="43.21856" lon="0.07466">
        <ele>377.6</ele>
        <time>2012-06-13T14:33:57Z</time>
      </trkpt>
      <trkpt lat="43.21857" lon="0.07455">
        <ele>373.9</ele>
        <time>2012-06-13T14:34:04Z</time>
      </trkpt>
      <trkpt lat="43.21861" lon="0.07447">
        <ele>371.5</ele>
        <time>2012-06-13T14:34:08Z</time>
      </trkpt>
      <trkpt lat="43.21857" lon="0.07429">
        <ele>370.4</ele>
        <time>2012-06-13T14:34:16Z</time>
      </trkpt>
      <trkpt lat="43.21857" lon="0.07419">
        <ele>370.1</ele>
        <time>2012-06-13T14:34:21Z</time>
      </trkpt>
      <trkpt lat="43.21864" lon="0.07401">
        <ele>363.3</ele>
        <time>2012-06-13T14:34:31Z</time>
      </trkpt>
      <trkpt lat="43.21863" lon="0.07391">
        <ele>365.4</ele>
        <time>2012-06-13T14:34:39Z</time>
      </trkpt>
      <trkpt lat="43.21862" lon="0.07373">
        <ele>370.5</ele>
        <time>2012-06-13T14:34:50Z</time>
      </trkpt>
      <trkpt lat="43.21863" lon="0.07355">
        <ele>376.4</ele>
        <time>2012-06-13T14:34:58Z</time>
      </trkpt>
      <trkpt lat="43.21861" lon="0.07346">
        <ele>375.1</ele>
        <time>2012-06-13T14:35:04Z</time>
      </trkpt>
      <trkpt lat="43.21866" lon="0.07319">
        <ele>367</ele>
        <time>2012-06-13T14:35:21Z</time>
      </trkpt>
      <trkpt lat="43.21869" lon="0.07311">
        <ele>366.3</ele>
        <time>2012-06-13T14:35:26Z</time>
      </trkpt>
      <trkpt lat="43.21871" lon="0.07291">
        <ele>366.9</ele>
        <time>2012-06-13T14:35:37Z</time>
      </trkpt>
      <trkpt lat="43.21874" lon="0.07265">
        <ele>367.3</ele>
        <time>2012-06-13T14:35:51Z</time>
      </trkpt>
      <trkpt lat="43.21872" lon="0.07255">
        <ele>376.3</ele>
        <time>2012-06-13T14:35:55Z</time>
      </trkpt>
      <trkpt lat="43.21876" lon="0.07249">
        <ele>375.9</ele>
        <time>2012-06-13T14:36:04Z</time>
      </trkpt>
      <trkpt lat="43.21878" lon="0.0724">
        <ele>374.4</ele>
        <time>2012-06-13T14:36:10Z</time>
      </trkpt>
      <trkpt lat="43.21879" lon="0.07221">
        <ele>373.2</ele>
        <time>2012-06-13T14:36:21Z</time>
      </trkpt>
      <trkpt lat="43.21888" lon="0.07196">
        <ele>369.3</ele>
        <time>2012-06-13T14:36:38Z</time>
      </trkpt>
      <trkpt lat="43.21888" lon="0.07187">
        <ele>370.6</ele>
        <time>2012-06-13T14:36:42Z</time>
      </trkpt>
      <trkpt lat="43.21884" lon="0.0718">
        <ele>371.7</ele>
        <time>2012-06-13T14:36:49Z</time>
      </trkpt>
      <trkpt lat="43.21903" lon="0.07154">
        <ele>373.4</ele>
        <time>2012-06-13T14:37:07Z</time>
      </trkpt>
      <trkpt lat="43.2191" lon="0.07152">
        <ele>373.3</ele>
        <time>2012-06-13T14:37:11Z</time>
      </trkpt>
      <trkpt lat="43.21916" lon="0.07147">
        <ele>374.1</ele>
        <time>2012-06-13T14:37:16Z</time>
      </trkpt>
      <trkpt lat="43.21926" lon="0.07132">
        <ele>370.6</ele>
        <time>2012-06-13T14:37:37Z</time>
      </trkpt>
      <trkpt lat="43.21935" lon="0.0712">
        <ele>373.7</ele>
        <time>2012-06-13T14:37:45Z</time>
      </trkpt>
      <trkpt lat="43.21945" lon="0.07106">
        <ele>375</ele>
        <time>2012-06-13T14:37:51Z</time>
      </trkpt>
      <trkpt lat="43.21948" lon="0.07097">
        <ele>377.1</ele>
        <time>2012-06-13T14:37:55Z</time>
      </trkpt>
      <trkpt lat="43.21946" lon="0.07089">
        <ele>385.5</ele>
        <time>2012-06-13T14:38:03Z</time>
      </trkpt>
      <trkpt lat="43.21956" lon="0.07077">
        <ele>384.1</ele>
        <time>2012-06-13T14:38:12Z</time>
      </trkpt>
      <trkpt lat="43.21963" lon="0.07074">
        <ele>384.6</ele>
        <time>2012-06-13T14:38:16Z</time>
      </trkpt>
      <trkpt lat="43.2197" lon="0.07075">
        <ele>383.4</ele>
        <time>2012-06-13T14:38:22Z</time>
      </trkpt>
      <trkpt lat="43.21985" lon="0.07073">
        <ele>381</ele>
        <time>2012-06-13T14:38:32Z</time>
      </trkpt>
      <trkpt lat="43.22005" lon="0.0707">
        <ele>381.5</ele>
        <time>2012-06-13T14:38:48Z</time>
      </trkpt>
      <trkpt lat="43.2201" lon="0.07064">
        <ele>379.6</ele>
        <time>2012-06-13T14:38:53Z</time>
      </trkpt>
      <trkpt lat="43.22019" lon="0.07063">
        <ele>380</ele>
        <time>2012-06-13T14:39:00Z</time>
      </trkpt>
      <trkpt lat="43.22046" lon="0.07061">
        <ele>377.7</ele>
        <time>2012-06-13T14:39:20Z</time>
      </trkpt>
      <trkpt lat="43.22053" lon="0.07058">
        <ele>382.4</ele>
        <time>2012-06-13T14:39:29Z</time>
      </trkpt>
      <trkpt lat="43.22067" lon="0.07052">
        <ele>389.6</ele>
        <time>2012-06-13T14:39:37Z</time>
      </trkpt>
      <trkpt lat="43.22074" lon="0.07051">
        <ele>388.5</ele>
        <time>2012-06-13T14:39:41Z</time>
      </trkpt>
      <trkpt lat="43.22078" lon="0.07043">
        <ele>388.4</ele>
        <time>2012-06-13T14:39:46Z</time>
      </trkpt>
      <trkpt lat="43.22092" lon="0.07045">
        <ele>394.6</ele>
        <time>2012-06-13T14:39:58Z</time>
      </trkpt>
      <trkpt lat="43.22105" lon="0.07051">
        <ele>388.7</ele>
        <time>2012-06-13T14:40:07Z</time>
      </trkpt>
      <trkpt lat="43.22119" lon="0.07048">
        <ele>386.5</ele>
        <time>2012-06-13T14:40:17Z</time>
      </trkpt>
      <trkpt lat="43.22125" lon="0.07049">
        <ele>386.1</ele>
        <time>2012-06-13T14:40:21Z</time>
      </trkpt>
      <trkpt lat="43.22131" lon="0.07044">
        <ele>384.7</ele>
        <time>2012-06-13T14:40:27Z</time>
      </trkpt>
      <trkpt lat="43.22138" lon="0.07042">
        <ele>385.2</ele>
        <time>2012-06-13T14:40:33Z</time>
      </trkpt>
      <trkpt lat="43.22153" lon="0.07043">
        <ele>383.9</ele>
        <time>2012-06-13T14:40:47Z</time>
      </trkpt>
      <trkpt lat="43.2216" lon="0.07043">
        <ele>384.9</ele>
        <time>2012-06-13T14:40:52Z</time>
      </trkpt>
      <trkpt lat="43.22167" lon="0.07042">
        <ele>388.7</ele>
        <time>2012-06-13T14:40:59Z</time>
      </trkpt>
      <trkpt lat="43.22181" lon="0.07035">
        <ele>389.5</ele>
        <time>2012-06-13T14:41:10Z</time>
      </trkpt>
      <trkpt lat="43.22187" lon="0.07034">
        <ele>389.6</ele>
        <time>2012-06-13T14:41:17Z</time>
      </trkpt>
      <trkpt lat="43.222" lon="0.07027">
        <ele>387.5</ele>
        <time>2012-06-13T14:41:30Z</time>
      </trkpt>
      <trkpt lat="43.22213" lon="0.0702">
        <ele>386.3</ele>
        <time>2012-06-13T14:41:39Z</time>
      </trkpt>
      <trkpt lat="43.22226" lon="0.07018">
        <ele>387.3</ele>
        <time>2012-06-13T14:41:51Z</time>
      </trkpt>
      <trkpt lat="43.22233" lon="0.0702">
        <ele>386.2</ele>
        <time>2012-06-13T14:41:57Z</time>
      </trkpt>
      <trkpt lat="43.22247" lon="0.07015">
        <ele>386</ele>
        <time>2012-06-13T14:42:05Z</time>
      </trkpt>
      <trkpt lat="43.22254" lon="0.07015">
        <ele>385.8</ele>
        <time>2012-06-13T14:42:14Z</time>
      </trkpt>
      <trkpt lat="43.22268" lon="0.07017">
        <ele>388</ele>
        <time>2012-06-13T14:42:21Z</time>
      </trkpt>
      <trkpt lat="43.22273" lon="0.07012">
        <ele>387.3</ele>
        <time>2012-06-13T14:42:26Z</time>
      </trkpt>
      <trkpt lat="43.2228" lon="0.07008">
        <ele>386.6</ele>
        <time>2012-06-13T14:42:32Z</time>
      </trkpt>
      <trkpt lat="43.22287" lon="0.07006">
        <ele>385.5</ele>
        <time>2012-06-13T14:42:37Z</time>
      </trkpt>
      <trkpt lat="43.22294" lon="0.07006">
        <ele>379.1</ele>
        <time>2012-06-13T14:42:41Z</time>
      </trkpt>
      <trkpt lat="43.22302" lon="0.07008">
        <ele>376.6</ele>
        <time>2012-06-13T14:42:45Z</time>
      </trkpt>
      <trkpt lat="43.22322" lon="0.07002">
        <ele>377.8</ele>
        <time>2012-06-13T14:43:03Z</time>
      </trkpt>
      <trkpt lat="43.22329" lon="0.07002">
        <ele>378.4</ele>
        <time>2012-06-13T14:43:09Z</time>
      </trkpt>
      <trkpt lat="43.22336" lon="0.07001">
        <ele>376.7</ele>
        <time>2012-06-13T14:43:14Z</time>
      </trkpt>
      <trkpt lat="43.22346" lon="0.06988">
        <ele>381</ele>
        <time>2012-06-13T14:43:31Z</time>
      </trkpt>
      <trkpt lat="43.22367" lon="0.06981">
        <ele>381.6</ele>
        <time>2012-06-13T14:43:50Z</time>
      </trkpt>
      <trkpt lat="43.22374" lon="0.06983">
        <ele>378.7</ele>
        <time>2012-06-13T14:43:56Z</time>
      </trkpt>
      <trkpt lat="43.22388" lon="0.06981">
        <ele>381.2</ele>
        <time>2012-06-13T14:44:11Z</time>
      </trkpt>
      <trkpt lat="43.22394" lon="0.06982">
        <ele>378.8</ele>
        <time>2012-06-13T14:44:14Z</time>
      </trkpt>
      <trkpt lat="43.22412" lon="0.06974">
        <ele>380.1</ele>
        <time>2012-06-13T14:44:25Z</time>
      </trkpt>
      <trkpt lat="43.22418" lon="0.06969">
        <ele>379.7</ele>
        <time>2012-06-13T14:44:31Z</time>
      </trkpt>
      <trkpt lat="43.22425" lon="0.06971">
        <ele>380.9</ele>
        <time>2012-06-13T14:44:35Z</time>
      </trkpt>
      <trkpt lat="43.22432" lon="0.06973">
        <ele>379.1</ele>
        <time>2012-06-13T14:44:40Z</time>
      </trkpt>
      <trkpt lat="43.22446" lon="0.06973">
        <ele>374.7</ele>
        <time>2012-06-13T14:44:49Z</time>
      </trkpt>
      <trkpt lat="43.22451" lon="0.06968">
        <ele>374</ele>
        <time>2012-06-13T14:45:02Z</time>
      </trkpt>
      <trkpt lat="43.22463" lon="0.06961">
        <ele>377.9</ele>
        <time>2012-06-13T14:45:11Z</time>
      </trkpt>
      <trkpt lat="43.22475" lon="0.06953">
        <ele>377.8</ele>
        <time>2012-06-13T14:45:24Z</time>
      </trkpt>
      <trkpt lat="43.22488" lon="0.06948">
        <ele>379.6</ele>
        <time>2012-06-13T14:45:32Z</time>
      </trkpt>
      <trkpt lat="43.22504" lon="0.06944">
        <ele>376.9</ele>
        <time>2012-06-13T14:45:38Z</time>
      </trkpt>
      <trkpt lat="43.22518" lon="0.06948">
        <ele>375.1</ele>
        <time>2012-06-13T14:45:50Z</time>
      </trkpt>
      <trkpt lat="43.22524" lon="0.06952">
        <ele>376.1</ele>
        <time>2012-06-13T14:45:57Z</time>
      </trkpt>
      <trkpt lat="43.22525" lon="0.06944">
        <ele>377.5</ele>
        <time>2012-06-13T14:46:09Z</time>
      </trkpt>
      <trkpt lat="43.22539" lon="0.0694">
        <ele>376.1</ele>
        <time>2012-06-13T14:46:18Z</time>
      </trkpt>
      <trkpt lat="43.22552" lon="0.06941">
        <ele>377.4</ele>
        <time>2012-06-13T14:46:37Z</time>
      </trkpt>
      <trkpt lat="43.2257" lon="0.06942">
        <ele>377.6</ele>
        <time>2012-06-13T14:46:44Z</time>
      </trkpt>
      <trkpt lat="43.22592" lon="0.06951">
        <ele>379.8</ele>
        <time>2012-06-13T14:46:52Z</time>
      </trkpt>
      <trkpt lat="43.22599" lon="0.06949">
        <ele>379.9</ele>
        <time>2012-06-13T14:46:57Z</time>
      </trkpt>
      <trkpt lat="43.22604" lon="0.06956">
        <ele>379.5</ele>
        <time>2012-06-13T14:47:05Z</time>
      </trkpt>
      <trkpt lat="43.22611" lon="0.06961">
        <ele>380.4</ele>
        <time>2012-06-13T14:47:09Z</time>
      </trkpt>
      <trkpt lat="43.22617" lon="0.06963">
        <ele>378.2</ele>
        <time>2012-06-13T14:47:13Z</time>
      </trkpt>
      <trkpt lat="43.22622" lon="0.06959">
        <ele>380</ele>
        <time>2012-06-13T14:47:19Z</time>
      </trkpt>
      <trkpt lat="43.22636" lon="0.06955">
        <ele>380.4</ele>
        <time>2012-06-13T14:47:31Z</time>
      </trkpt>
      <trkpt lat="43.22643" lon="0.06956">
        <ele>379.8</ele>
        <time>2012-06-13T14:47:37Z</time>
      </trkpt>
      <trkpt lat="43.22651" lon="0.06956">
        <ele>381.2</ele>
        <time>2012-06-13T14:47:41Z</time>
      </trkpt>
      <trkpt lat="43.22658" lon="0.06958">
        <ele>380.9</ele>
        <time>2012-06-13T14:47:46Z</time>
      </trkpt>
      <trkpt lat="43.22672" lon="0.06961">
        <ele>384.7</ele>
        <time>2012-06-13T14:48:09Z</time>
      </trkpt>
      <trkpt lat="43.2268" lon="0.06963">
        <ele>385</ele>
        <time>2012-06-13T14:48:13Z</time>
      </trkpt>
      <trkpt lat="43.22693" lon="0.06967">
        <ele>386.6</ele>
        <time>2012-06-13T14:48:22Z</time>
      </trkpt>
      <trkpt lat="43.227" lon="0.0697">
        <ele>387.6</ele>
        <time>2012-06-13T14:48:25Z</time>
      </trkpt>
      <trkpt lat="43.22706" lon="0.06974">
        <ele>388.5</ele>
        <time>2012-06-13T14:48:29Z</time>
      </trkpt>
      <trkpt lat="43.22719" lon="0.06977">
        <ele>384.9</ele>
        <time>2012-06-13T14:48:37Z</time>
      </trkpt>
      <trkpt lat="43.22732" lon="0.06982">
        <ele>388.9</ele>
        <time>2012-06-13T14:48:48Z</time>
      </trkpt>
      <trkpt lat="43.22738" lon="0.06981">
        <ele>387.2</ele>
        <time>2012-06-13T14:48:55Z</time>
      </trkpt>
      <trkpt lat="43.22752" lon="0.06982">
        <ele>390.6</ele>
        <time>2012-06-13T14:49:08Z</time>
      </trkpt>
      <trkpt lat="43.22758" lon="0.06986">
        <ele>390.6</ele>
        <time>2012-06-13T14:49:23Z</time>
      </trkpt>
      <trkpt lat="43.22766" lon="0.06989">
        <ele>391.2</ele>
        <time>2012-06-13T14:49:27Z</time>
      </trkpt>
      <trkpt lat="43.22773" lon="0.06993">
        <ele>391.6</ele>
        <time>2012-06-13T14:49:30Z</time>
      </trkpt>
      <trkpt lat="43.22781" lon="0.06993">
        <ele>387.7</ele>
        <time>2012-06-13T14:49:39Z</time>
      </trkpt>
      <trkpt lat="43.22787" lon="0.06993">
        <ele>385.9</ele>
        <time>2012-06-13T14:49:42Z</time>
      </trkpt>
      <trkpt lat="43.22801" lon="0.06995">
        <ele>386.6</ele>
        <time>2012-06-13T14:49:50Z</time>
      </trkpt>
      <trkpt lat="43.22807" lon="0.06999">
        <ele>387.7</ele>
        <time>2012-06-13T14:50:00Z</time>
      </trkpt>
      <trkpt lat="43.22814" lon="0.07001">
        <ele>390.7</ele>
        <time>2012-06-13T14:50:09Z</time>
      </trkpt>
      <trkpt lat="43.22829" lon="0.07004">
        <ele>385.6</ele>
        <time>2012-06-13T14:50:15Z</time>
      </trkpt>
      <trkpt lat="43.22835" lon="0.07006">
        <ele>385.6</ele>
        <time>2012-06-13T14:50:20Z</time>
      </trkpt>
      <trkpt lat="43.22842" lon="0.07005">
        <ele>383.6</ele>
        <time>2012-06-13T14:50:23Z</time>
      </trkpt>
      <trkpt lat="43.22849" lon="0.07005">
        <ele>384.5</ele>
        <time>2012-06-13T14:50:26Z</time>
      </trkpt>
      <trkpt lat="43.22856" lon="0.07006">
        <ele>390.9</ele>
        <time>2012-06-13T14:50:30Z</time>
      </trkpt>
      <trkpt lat="43.22862" lon="0.07007">
        <ele>391.1</ele>
        <time>2012-06-13T14:50:36Z</time>
      </trkpt>
      <trkpt lat="43.22876" lon="0.07013">
        <ele>398.7</ele>
        <time>2012-06-13T14:50:48Z</time>
      </trkpt>
      <trkpt lat="43.2289" lon="0.07024">
        <ele>392.7</ele>
        <time>2012-06-13T14:50:56Z</time>
      </trkpt>
      <trkpt lat="43.229" lon="0.07036">
        <ele>379.4</ele>
        <time>2012-06-13T14:51:12Z</time>
      </trkpt>
      <trkpt lat="43.22897" lon="0.07055">
        <ele>377.7</ele>
        <time>2012-06-13T14:51:24Z</time>
      </trkpt>
      <trkpt lat="43.229" lon="0.07073">
        <ele>362.4</ele>
        <time>2012-06-13T14:51:38Z</time>
      </trkpt>
      <trkpt lat="43.22884" lon="0.07103">
        <ele>360.2</ele>
        <time>2012-06-13T14:51:55Z</time>
      </trkpt>
      <trkpt lat="43.22884" lon="0.07112">
        <ele>359.9</ele>
        <time>2012-06-13T14:52:00Z</time>
      </trkpt>
      <trkpt lat="43.22885" lon="0.07136">
        <ele>360.8</ele>
        <time>2012-06-13T14:52:23Z</time>
      </trkpt>
      <trkpt lat="43.22886" lon="0.07146">
        <ele>359.7</ele>
        <time>2012-06-13T14:52:27Z</time>
      </trkpt>
      <trkpt lat="43.22889" lon="0.07155">
        <ele>360.5</ele>
        <time>2012-06-13T14:52:32Z</time>
      </trkpt>
      <trkpt lat="43.22889" lon="0.07165">
        <ele>364.2</ele>
        <time>2012-06-13T14:52:42Z</time>
      </trkpt>
      <trkpt lat="43.22885" lon="0.07183">
        <ele>363.5</ele>
        <time>2012-06-13T14:52:56Z</time>
      </trkpt>
      <trkpt lat="43.22884" lon="0.07194">
        <ele>364.2</ele>
        <time>2012-06-13T14:53:00Z</time>
      </trkpt>
      <trkpt lat="43.22883" lon="0.07203">
        <ele>365.1</ele>
        <time>2012-06-13T14:53:04Z</time>
      </trkpt>
      <trkpt lat="43.22882" lon="0.07213">
        <ele>362.1</ele>
        <time>2012-06-13T14:53:09Z</time>
      </trkpt>
      <trkpt lat="43.22881" lon="0.07222">
        <ele>368.4</ele>
        <time>2012-06-13T14:53:15Z</time>
      </trkpt>
      <trkpt lat="43.22881" lon="0.07231">
        <ele>365</ele>
        <time>2012-06-13T14:53:22Z</time>
      </trkpt>
      <trkpt lat="43.22886" lon="0.07248">
        <ele>366</ele>
        <time>2012-06-13T14:53:42Z</time>
      </trkpt>
      <trkpt lat="43.22891" lon="0.07256">
        <ele>367</ele>
        <time>2012-06-13T14:53:48Z</time>
      </trkpt>
      <trkpt lat="43.22902" lon="0.07266">
        <ele>368.2</ele>
        <time>2012-06-13T14:54:12Z</time>
      </trkpt>
      <trkpt lat="43.22909" lon="0.07267">
        <ele>362.8</ele>
        <time>2012-06-13T14:54:18Z</time>
      </trkpt>
      <trkpt lat="43.22945" lon="0.0728">
        <ele>360.8</ele>
        <time>2012-06-13T14:54:32Z</time>
      </trkpt>
      <trkpt lat="43.22952" lon="0.07281">
        <ele>364.7</ele>
        <time>2012-06-13T14:55:00Z</time>
      </trkpt>
      <trkpt lat="43.22959" lon="0.07281">
        <ele>367.4</ele>
        <time>2012-06-13T14:55:06Z</time>
      </trkpt>
      <trkpt lat="43.22966" lon="0.07277">
        <ele>366.2</ele>
        <time>2012-06-13T14:55:10Z</time>
      </trkpt>
      <trkpt lat="43.22974" lon="0.07279">
        <ele>365.5</ele>
        <time>2012-06-13T14:55:45Z</time>
      </trkpt>
      <trkpt lat="43.2298" lon="0.07279">
        <ele>365</ele>
        <time>2012-06-13T14:55:50Z</time>
      </trkpt>
      <trkpt lat="43.22988" lon="0.07279">
        <ele>366.1</ele>
        <time>2012-06-13T14:55:57Z</time>
      </trkpt>
      <trkpt lat="43.23001" lon="0.07291">
        <ele>364.7</ele>
        <time>2012-06-13T14:56:07Z</time>
      </trkpt>
      <trkpt lat="43.23005" lon="0.07299">
        <ele>367.7</ele>
        <time>2012-06-13T14:56:12Z</time>
      </trkpt>
      <trkpt lat="43.23026" lon="0.07303">
        <ele>362.9</ele>
        <time>2012-06-13T14:56:37Z</time>
      </trkpt>
      <trkpt lat="43.23033" lon="0.073">
        <ele>365.3</ele>
        <time>2012-06-13T14:56:43Z</time>
      </trkpt>
      <trkpt lat="43.23045" lon="0.07309">
        <ele>375.3</ele>
        <time>2012-06-13T14:57:00Z</time>
      </trkpt>
      <trkpt lat="43.23053" lon="0.07311">
        <ele>380</ele>
        <time>2012-06-13T14:57:08Z</time>
      </trkpt>
      <trkpt lat="43.23067" lon="0.07317">
        <ele>384</ele>
        <time>2012-06-13T14:57:18Z</time>
      </trkpt>
      <trkpt lat="43.23074" lon="0.0732">
        <ele>386.9</ele>
        <time>2012-06-13T14:57:22Z</time>
      </trkpt>
      <trkpt lat="43.23088" lon="0.0733">
        <ele>393.5</ele>
        <time>2012-06-13T14:57:56Z</time>
      </trkpt>
      <trkpt lat="43.23104" lon="0.0734">
        <ele>396.2</ele>
        <time>2012-06-13T14:58:00Z</time>
      </trkpt>
      <trkpt lat="43.2312" lon="0.07348">
        <ele>397.9</ele>
        <time>2012-06-13T14:58:05Z</time>
      </trkpt>
      <trkpt lat="43.23132" lon="0.07358">
        <ele>397</ele>
        <time>2012-06-13T14:58:12Z</time>
      </trkpt>
      <trkpt lat="43.23138" lon="0.0736">
        <ele>393.1</ele>
        <time>2012-06-13T14:58:17Z</time>
      </trkpt>
      <trkpt lat="43.23145" lon="0.07361">
        <ele>391.3</ele>
        <time>2012-06-13T14:58:20Z</time>
      </trkpt>
      <trkpt lat="43.23151" lon="0.07362">
        <ele>392.4</ele>
        <time>2012-06-13T14:58:29Z</time>
      </trkpt>
      <trkpt lat="43.23166" lon="0.07346">
        <ele>388.9</ele>
        <time>2012-06-13T14:58:45Z</time>
      </trkpt>
      <trkpt lat="43.2318" lon="0.0735">
        <ele>391.2</ele>
        <time>2012-06-13T14:58:53Z</time>
      </trkpt>
      <trkpt lat="43.23186" lon="0.07353">
        <ele>392</ele>
        <time>2012-06-13T14:58:56Z</time>
      </trkpt>
      <trkpt lat="43.23193" lon="0.07356">
        <ele>395.8</ele>
        <time>2012-06-13T14:59:01Z</time>
      </trkpt>
      <trkpt lat="43.23199" lon="0.07361">
        <ele>401.8</ele>
        <time>2012-06-13T14:59:07Z</time>
      </trkpt>
      <trkpt lat="43.23205" lon="0.07364">
        <ele>403.6</ele>
        <time>2012-06-13T14:59:12Z</time>
      </trkpt>
      <trkpt lat="43.23219" lon="0.07364">
        <ele>410</ele>
        <time>2012-06-13T14:59:20Z</time>
      </trkpt>
      <trkpt lat="43.23236" lon="0.07377">
        <ele>396.3</ele>
        <time>2012-06-13T14:59:37Z</time>
      </trkpt>
      <trkpt lat="43.2324" lon="0.07384">
        <ele>396.9</ele>
        <time>2012-06-13T14:59:40Z</time>
      </trkpt>
      <trkpt lat="43.2325" lon="0.07399">
        <ele>398.4</ele>
        <time>2012-06-13T14:59:47Z</time>
      </trkpt>
      <trkpt lat="43.23257" lon="0.07405">
        <ele>397.9</ele>
        <time>2012-06-13T14:59:52Z</time>
      </trkpt>
      <trkpt lat="43.23262" lon="0.07399">
        <ele>395</ele>
        <time>2012-06-13T15:00:04Z</time>
      </trkpt>
      <trkpt lat="43.23274" lon="0.07397">
        <ele>395.3</ele>
        <time>2012-06-13T15:00:19Z</time>
      </trkpt>
      <trkpt lat="43.23276" lon="0.07406">
        <ele>401.4</ele>
        <time>2012-06-13T15:00:25Z</time>
      </trkpt>
      <trkpt lat="43.23287" lon="0.07397">
        <ele>403.2</ele>
        <time>2012-06-13T15:00:43Z</time>
      </trkpt>
      <trkpt lat="43.23295" lon="0.07393">
        <ele>392.7</ele>
        <time>2012-06-13T15:01:03Z</time>
      </trkpt>
      <trkpt lat="43.23302" lon="0.07396">
        <ele>386.2</ele>
        <time>2012-06-13T15:01:07Z</time>
      </trkpt>
      <trkpt lat="43.23314" lon="0.07403">
        <ele>382.9</ele>
        <time>2012-06-13T15:01:13Z</time>
      </trkpt>
      <trkpt lat="43.2332" lon="0.07408">
        <ele>387.7</ele>
        <time>2012-06-13T15:01:17Z</time>
      </trkpt>
      <trkpt lat="43.23339" lon="0.07416">
        <ele>384</ele>
        <time>2012-06-13T15:01:33Z</time>
      </trkpt>
      <trkpt lat="43.2335" lon="0.07424">
        <ele>383.7</ele>
        <time>2012-06-13T15:01:47Z</time>
      </trkpt>
      <trkpt lat="43.23364" lon="0.0743">
        <ele>378.3</ele>
        <time>2012-06-13T15:02:00Z</time>
      </trkpt>
      <trkpt lat="43.23369" lon="0.07437">
        <ele>370</ele>
        <time>2012-06-13T15:02:04Z</time>
      </trkpt>
      <trkpt lat="43.23371" lon="0.07446">
        <ele>364.9</ele>
        <time>2012-06-13T15:02:10Z</time>
      </trkpt>
      <trkpt lat="43.23373" lon="0.07462">
        <ele>357.5</ele>
        <time>2012-06-13T15:02:30Z</time>
      </trkpt>
      <trkpt lat="43.23386" lon="0.07466">
        <ele>355</ele>
        <time>2012-06-13T15:02:51Z</time>
      </trkpt>
      <trkpt lat="43.23398" lon="0.0746">
        <ele>361.4</ele>
        <time>2012-06-13T15:03:06Z</time>
      </trkpt>
      <trkpt lat="43.23404" lon="0.07457">
        <ele>366.9</ele>
        <time>2012-06-13T15:03:27Z</time>
      </trkpt>
      <trkpt lat="43.23411" lon="0.07455">
        <ele>365.5</ele>
        <time>2012-06-13T15:03:37Z</time>
      </trkpt>
      <trkpt lat="43.23417" lon="0.07456">
        <ele>364.4</ele>
        <time>2012-06-13T15:03:42Z</time>
      </trkpt>
      <trkpt lat="43.23423" lon="0.07462">
        <ele>364.3</ele>
        <time>2012-06-13T15:03:46Z</time>
      </trkpt>
      <trkpt lat="43.23429" lon="0.07466">
        <ele>362.1</ele>
        <time>2012-06-13T15:03:50Z</time>
      </trkpt>
      <trkpt lat="43.23436" lon="0.07463">
        <ele>361</ele>
        <time>2012-06-13T15:03:56Z</time>
      </trkpt>
      <trkpt lat="43.23448" lon="0.07457">
        <ele>358.6</ele>
        <time>2012-06-13T15:04:08Z</time>
      </trkpt>
      <trkpt lat="43.23452" lon="0.07449">
        <ele>358.9</ele>
        <time>2012-06-13T15:04:14Z</time>
      </trkpt>
      <trkpt lat="43.23457" lon="0.07433">
        <ele>362.8</ele>
        <time>2012-06-13T15:04:26Z</time>
      </trkpt>
      <trkpt lat="43.23464" lon="0.07429">
        <ele>363</ele>
        <time>2012-06-13T15:04:32Z</time>
      </trkpt>
      <trkpt lat="43.23473" lon="0.07419">
        <ele>358.4</ele>
        <time>2012-06-13T15:04:43Z</time>
      </trkpt>
      <trkpt lat="43.23476" lon="0.07411">
        <ele>356.8</ele>
        <time>2012-06-13T15:04:47Z</time>
      </trkpt>
      <trkpt lat="43.2348" lon="0.07402">
        <ele>356.4</ele>
        <time>2012-06-13T15:04:52Z</time>
      </trkpt>
      <trkpt lat="43.23491" lon="0.07396">
        <ele>353.8</ele>
        <time>2012-06-13T15:05:11Z</time>
      </trkpt>
      <trkpt lat="43.23497" lon="0.07402">
        <ele>352.8</ele>
        <time>2012-06-13T15:05:17Z</time>
      </trkpt>
      <trkpt lat="43.23504" lon="0.07405">
        <ele>356.2</ele>
        <time>2012-06-13T15:05:22Z</time>
      </trkpt>
      <trkpt lat="43.23512" lon="0.07405">
        <ele>359.5</ele>
        <time>2012-06-13T15:05:27Z</time>
      </trkpt>
      <trkpt lat="43.23519" lon="0.07405">
        <ele>359.3</ele>
        <time>2012-06-13T15:05:34Z</time>
      </trkpt>
      <trkpt lat="43.23526" lon="0.07408">
        <ele>361.1</ele>
        <time>2012-06-13T15:05:40Z</time>
      </trkpt>
      <trkpt lat="43.23547" lon="0.07405">
        <ele>363.6</ele>
        <time>2012-06-13T15:05:54Z</time>
      </trkpt>
      <trkpt lat="43.23554" lon="0.07402">
        <ele>364.1</ele>
        <time>2012-06-13T15:05:58Z</time>
      </trkpt>
      <trkpt lat="43.23561" lon="0.074">
        <ele>366.6</ele>
        <time>2012-06-13T15:06:04Z</time>
      </trkpt>
      <trkpt lat="43.23565" lon="0.07408">
        <ele>360.4</ele>
        <time>2012-06-13T15:06:10Z</time>
      </trkpt>
      <trkpt lat="43.2357" lon="0.07413">
        <ele>362.1</ele>
        <time>2012-06-13T15:06:18Z</time>
      </trkpt>
      <trkpt lat="43.23576" lon="0.07416">
        <ele>364.6</ele>
        <time>2012-06-13T15:06:40Z</time>
      </trkpt>
      <trkpt lat="43.2359" lon="0.07418">
        <ele>369</ele>
        <time>2012-06-13T15:06:59Z</time>
      </trkpt>
      <trkpt lat="43.23596" lon="0.07417">
        <ele>371</ele>
        <time>2012-06-13T15:07:05Z</time>
      </trkpt>
      <trkpt lat="43.23602" lon="0.07413">
        <ele>373.7</ele>
        <time>2012-06-13T15:07:11Z</time>
      </trkpt>
      <trkpt lat="43.23608" lon="0.0741">
        <ele>376.8</ele>
        <time>2012-06-13T15:07:17Z</time>
      </trkpt>
      <trkpt lat="43.23622" lon="0.07408">
        <ele>376.7</ele>
        <time>2012-06-13T15:07:29Z</time>
      </trkpt>
      <trkpt lat="43.23625" lon="0.07415">
        <ele>376.1</ele>
        <time>2012-06-13T15:07:33Z</time>
      </trkpt>
      <trkpt lat="43.23627" lon="0.07424">
        <ele>377.3</ele>
        <time>2012-06-13T15:07:38Z</time>
      </trkpt>
      <trkpt lat="43.23628" lon="0.07433">
        <ele>376.6</ele>
        <time>2012-06-13T15:07:42Z</time>
      </trkpt>
      <trkpt lat="43.2363" lon="0.07443">
        <ele>375</ele>
        <time>2012-06-13T15:07:48Z</time>
      </trkpt>
      <trkpt lat="43.2364" lon="0.07454">
        <ele>372.1</ele>
        <time>2012-06-13T15:08:22Z</time>
      </trkpt>
      <trkpt lat="43.23644" lon="0.07466">
        <ele>356.6</ele>
        <time>2012-06-13T15:08:39Z</time>
      </trkpt>
      <trkpt lat="43.23652" lon="0.07466">
        <ele>359.4</ele>
        <time>2012-06-13T15:08:42Z</time>
      </trkpt>
      <trkpt lat="43.23659" lon="0.07469">
        <ele>363</ele>
        <time>2012-06-13T15:08:52Z</time>
      </trkpt>
      <trkpt lat="43.23665" lon="0.07469">
        <ele>360.8</ele>
        <time>2012-06-13T15:09:07Z</time>
      </trkpt>
      <trkpt lat="43.23665" lon="0.07478">
        <ele>361.3</ele>
        <time>2012-06-13T15:09:25Z</time>
      </trkpt>
      <trkpt lat="43.23671" lon="0.07477">
        <ele>361</ele>
        <time>2012-06-13T15:09:50Z</time>
      </trkpt>
      <trkpt lat="43.23677" lon="0.07482">
        <ele>359.5</ele>
        <time>2012-06-13T15:09:55Z</time>
      </trkpt>
      <trkpt lat="43.23687" lon="0.07492">
        <ele>353.2</ele>
        <time>2012-06-13T15:10:12Z</time>
      </trkpt>
      <trkpt lat="43.23692" lon="0.07498">
        <ele>357.5</ele>
        <time>2012-06-13T15:11:09Z</time>
      </trkpt>
      <trkpt lat="43.23697" lon="0.07505">
        <ele>357.1</ele>
        <time>2012-06-13T15:11:16Z</time>
      </trkpt>
      <trkpt lat="43.23706" lon="0.07519">
        <ele>362.6</ele>
        <time>2012-06-13T15:11:33Z</time>
      </trkpt>
      <trkpt lat="43.23712" lon="0.07526">
        <ele>361.6</ele>
        <time>2012-06-13T15:11:38Z</time>
      </trkpt>
      <trkpt lat="43.23716" lon="0.07534">
        <ele>359.2</ele>
        <time>2012-06-13T15:11:44Z</time>
      </trkpt>
      <trkpt lat="43.23722" lon="0.07539">
        <ele>358.7</ele>
        <time>2012-06-13T15:11:51Z</time>
      </trkpt>
      <trkpt lat="43.23734" lon="0.07544">
        <ele>362.6</ele>
        <time>2012-06-13T15:12:06Z</time>
      </trkpt>
      <trkpt lat="43.23745" lon="0.07554">
        <ele>361.5</ele>
        <time>2012-06-13T15:12:31Z</time>
      </trkpt>
      <trkpt lat="43.23752" lon="0.07556">
        <ele>357</ele>
        <time>2012-06-13T15:13:43Z</time>
      </trkpt>
      <trkpt lat="43.23755" lon="0.07564">
        <ele>358.2</ele>
        <time>2012-06-13T15:13:48Z</time>
      </trkpt>
      <trkpt lat="43.23765" lon="0.0758">
        <ele>360.1</ele>
        <time>2012-06-13T15:14:20Z</time>
      </trkpt>
      <trkpt lat="43.2377" lon="0.07588">
        <ele>358.9</ele>
        <time>2012-06-13T15:14:25Z</time>
      </trkpt>
      <trkpt lat="43.23778" lon="0.07584">
        <ele>358.2</ele>
        <time>2012-06-13T15:20:15Z</time>
      </trkpt>
      <trkpt lat="43.23773" lon="0.0759">
        <ele>358.8</ele>
        <time>2012-06-13T15:20:20Z</time>
      </trkpt>
      <trkpt lat="43.23775" lon="0.076">
        <ele>362.9</ele>
        <time>2012-06-13T15:20:30Z</time>
      </trkpt>
      <trkpt lat="43.23779" lon="0.07627">
        <ele>358.4</ele>
        <time>2012-06-13T15:20:44Z</time>
      </trkpt>
      <trkpt lat="43.23775" lon="0.07635">
        <ele>358.2</ele>
        <time>2012-06-13T15:20:47Z</time>
      </trkpt>
      <trkpt lat="43.23771" lon="0.07641">
        <ele>355.7</ele>
        <time>2012-06-13T15:20:54Z</time>
      </trkpt>
      <trkpt lat="43.23765" lon="0.07644">
        <ele>352.7</ele>
        <time>2012-06-13T15:21:00Z</time>
      </trkpt>
      <trkpt lat="43.23739" lon="0.07657">
        <ele>355.5</ele>
        <time>2012-06-13T15:21:29Z</time>
      </trkpt>
      <trkpt lat="43.23735" lon="0.07664">
        <ele>355.6</ele>
        <time>2012-06-13T15:21:34Z</time>
      </trkpt>
      <trkpt lat="43.23729" lon="0.07668">
        <ele>358.3</ele>
        <time>2012-06-13T15:21:40Z</time>
      </trkpt>
      <trkpt lat="43.23721" lon="0.07669">
        <ele>359.1</ele>
        <time>2012-06-13T15:21:46Z</time>
      </trkpt>
      <trkpt lat="43.23708" lon="0.07671">
        <ele>363.5</ele>
        <time>2012-06-13T15:21:55Z</time>
      </trkpt>
      <trkpt lat="43.23701" lon="0.07671">
        <ele>363.8</ele>
        <time>2012-06-13T15:22:00Z</time>
      </trkpt>
      <trkpt lat="43.23688" lon="0.07666">
        <ele>360.1</ele>
        <time>2012-06-13T15:22:12Z</time>
      </trkpt>
      <trkpt lat="43.2368" lon="0.07662">
        <ele>362.3</ele>
        <time>2012-06-13T15:22:18Z</time>
      </trkpt>
      <trkpt lat="43.23674" lon="0.0766">
        <ele>363.8</ele>
        <time>2012-06-13T15:22:23Z</time>
      </trkpt>
      <trkpt lat="43.23664" lon="0.07648">
        <ele>365.6</ele>
        <time>2012-06-13T15:22:37Z</time>
      </trkpt>
      <trkpt lat="43.23658" lon="0.07645">
        <ele>365.4</ele>
        <time>2012-06-13T15:22:43Z</time>
      </trkpt>
      <trkpt lat="43.23652" lon="0.0764">
        <ele>370.1</ele>
        <time>2012-06-13T15:22:50Z</time>
      </trkpt>
      <trkpt lat="43.2365" lon="0.07631">
        <ele>370.3</ele>
        <time>2012-06-13T15:22:57Z</time>
      </trkpt>
      <trkpt lat="43.23648" lon="0.07622">
        <ele>365.9</ele>
        <time>2012-06-13T15:23:04Z</time>
      </trkpt>
      <trkpt lat="43.23647" lon="0.07612">
        <ele>359.1</ele>
        <time>2012-06-13T15:23:11Z</time>
      </trkpt>
      <trkpt lat="43.23648" lon="0.07593">
        <ele>355.2</ele>
        <time>2012-06-13T15:23:25Z</time>
      </trkpt>
      <trkpt lat="43.23646" lon="0.07574">
        <ele>359.1</ele>
        <time>2012-06-13T15:23:35Z</time>
      </trkpt>
      <trkpt lat="43.23647" lon="0.07556">
        <ele>360</ele>
        <time>2012-06-13T15:23:48Z</time>
      </trkpt>
      <trkpt lat="43.23645" lon="0.07546">
        <ele>357.5</ele>
        <time>2012-06-13T15:23:55Z</time>
      </trkpt>
      <trkpt lat="43.23632" lon="0.07545">
        <ele>360.5</ele>
        <time>2012-06-13T15:24:06Z</time>
      </trkpt>
      <trkpt lat="43.23625" lon="0.07545">
        <ele>359</ele>
        <time>2012-06-13T15:24:12Z</time>
      </trkpt>
      <trkpt lat="43.23611" lon="0.07545">
        <ele>358.5</ele>
        <time>2012-06-13T15:24:24Z</time>
      </trkpt>
      <trkpt lat="43.23598" lon="0.07547">
        <ele>361.1</ele>
        <time>2012-06-13T15:24:44Z</time>
      </trkpt>
      <trkpt lat="43.23592" lon="0.07547">
        <ele>360</ele>
        <time>2012-06-13T15:24:48Z</time>
      </trkpt>
      <trkpt lat="43.23584" lon="0.07551">
        <ele>362</ele>
        <time>2012-06-13T15:24:53Z</time>
      </trkpt>
      <trkpt lat="43.23577" lon="0.0755">
        <ele>364</ele>
        <time>2012-06-13T15:25:00Z</time>
      </trkpt>
      <trkpt lat="43.23582" lon="0.0753">
        <ele>366.4</ele>
        <time>2012-06-13T15:25:17Z</time>
      </trkpt>
      <trkpt lat="43.23579" lon="0.07521">
        <ele>365</ele>
        <time>2012-06-13T15:25:22Z</time>
      </trkpt>
      <trkpt lat="43.23576" lon="0.07492">
        <ele>366</ele>
        <time>2012-06-13T15:25:36Z</time>
      </trkpt>
      <trkpt lat="43.23577" lon="0.07483">
        <ele>365.4</ele>
        <time>2012-06-13T15:25:41Z</time>
      </trkpt>
      <trkpt lat="43.23576" lon="0.07474">
        <ele>363.7</ele>
        <time>2012-06-13T15:25:47Z</time>
      </trkpt>
      <trkpt lat="43.23574" lon="0.07447">
        <ele>378.7</ele>
        <time>2012-06-13T15:26:14Z</time>
      </trkpt>
      <trkpt lat="43.23572" lon="0.07438">
        <ele>374.8</ele>
        <time>2012-06-13T15:26:19Z</time>
      </trkpt>
      <trkpt lat="43.23573" lon="0.07422">
        <ele>369.6</ele>
        <time>2012-06-13T15:26:34Z</time>
      </trkpt>
      <trkpt lat="43.23564" lon="0.07405">
        <ele>368.1</ele>
        <time>2012-06-13T15:27:05Z</time>
      </trkpt>
      <trkpt lat="43.23559" lon="0.074">
        <ele>366.7</ele>
        <time>2012-06-13T15:27:14Z</time>
      </trkpt>
      <trkpt lat="43.23544" lon="0.07401">
        <ele>373.1</ele>
        <time>2012-06-13T15:27:20Z</time>
      </trkpt>
      <trkpt lat="43.23538" lon="0.07402">
        <ele>374.1</ele>
        <time>2012-06-13T15:27:22Z</time>
      </trkpt>
      <trkpt lat="43.23523" lon="0.07403">
        <ele>374.2</ele>
        <time>2012-06-13T15:27:28Z</time>
      </trkpt>
      <trkpt lat="43.23516" lon="0.07403">
        <ele>374.7</ele>
        <time>2012-06-13T15:27:32Z</time>
      </trkpt>
      <trkpt lat="43.23503" lon="0.07398">
        <ele>374.1</ele>
        <time>2012-06-13T15:27:42Z</time>
      </trkpt>
      <trkpt lat="43.23498" lon="0.07393">
        <ele>377.1</ele>
        <time>2012-06-13T15:27:51Z</time>
      </trkpt>
      <trkpt lat="43.23485" lon="0.07394">
        <ele>375.7</ele>
        <time>2012-06-13T15:28:02Z</time>
      </trkpt>
      <trkpt lat="43.23473" lon="0.07384">
        <ele>374.6</ele>
        <time>2012-06-13T15:28:14Z</time>
      </trkpt>
      <trkpt lat="43.23466" lon="0.07384">
        <ele>379.6</ele>
        <time>2012-06-13T15:28:19Z</time>
      </trkpt>
      <trkpt lat="43.23458" lon="0.07382">
        <ele>382.4</ele>
        <time>2012-06-13T15:28:25Z</time>
      </trkpt>
      <trkpt lat="43.23454" lon="0.07376">
        <ele>369.9</ele>
        <time>2012-06-13T15:28:31Z</time>
      </trkpt>
      <trkpt lat="43.23447" lon="0.07373">
        <ele>365.9</ele>
        <time>2012-06-13T15:28:38Z</time>
      </trkpt>
      <trkpt lat="43.23433" lon="0.07372">
        <ele>364.9</ele>
        <time>2012-06-13T15:28:45Z</time>
      </trkpt>
      <trkpt lat="43.23419" lon="0.0737">
        <ele>366.3</ele>
        <time>2012-06-13T15:28:55Z</time>
      </trkpt>
      <trkpt lat="43.23406" lon="0.07364">
        <ele>366.3</ele>
        <time>2012-06-13T15:29:06Z</time>
      </trkpt>
      <trkpt lat="43.23399" lon="0.07361">
        <ele>371.4</ele>
        <time>2012-06-13T15:29:14Z</time>
      </trkpt>
      <trkpt lat="43.23387" lon="0.07349">
        <ele>383.6</ele>
        <time>2012-06-13T15:29:25Z</time>
      </trkpt>
      <trkpt lat="43.23382" lon="0.07355">
        <ele>382.4</ele>
        <time>2012-06-13T15:29:31Z</time>
      </trkpt>
      <trkpt lat="43.23375" lon="0.07355">
        <ele>378.3</ele>
        <time>2012-06-13T15:29:48Z</time>
      </trkpt>
      <trkpt lat="43.23361" lon="0.07356">
        <ele>382.1</ele>
        <time>2012-06-13T15:30:04Z</time>
      </trkpt>
      <trkpt lat="43.23357" lon="0.07362">
        <ele>375.5</ele>
        <time>2012-06-13T15:30:10Z</time>
      </trkpt>
      <trkpt lat="43.23351" lon="0.07368">
        <ele>376.2</ele>
        <time>2012-06-13T15:30:18Z</time>
      </trkpt>
      <trkpt lat="43.23345" lon="0.07373">
        <ele>367</ele>
        <time>2012-06-13T15:30:28Z</time>
      </trkpt>
      <trkpt lat="43.23335" lon="0.07384">
        <ele>362.6</ele>
        <time>2012-06-13T15:30:39Z</time>
      </trkpt>
      <trkpt lat="43.23314" lon="0.07385">
        <ele>357.2</ele>
        <time>2012-06-13T15:30:55Z</time>
      </trkpt>
      <trkpt lat="43.23306" lon="0.07385">
        <ele>359.2</ele>
        <time>2012-06-13T15:31:00Z</time>
      </trkpt>
      <trkpt lat="43.233" lon="0.07383">
        <ele>359.9</ele>
        <time>2012-06-13T15:31:05Z</time>
      </trkpt>
      <trkpt lat="43.23293" lon="0.07382">
        <ele>360.6</ele>
        <time>2012-06-13T15:31:10Z</time>
      </trkpt>
      <trkpt lat="43.23284" lon="0.0737">
        <ele>361</ele>
        <time>2012-06-13T15:31:27Z</time>
      </trkpt>
      <trkpt lat="43.23277" lon="0.07373">
        <ele>359.7</ele>
        <time>2012-06-13T15:31:33Z</time>
      </trkpt>
      <trkpt lat="43.23271" lon="0.07376">
        <ele>360.7</ele>
        <time>2012-06-13T15:31:38Z</time>
      </trkpt>
      <trkpt lat="43.23264" lon="0.07371">
        <ele>358.2</ele>
        <time>2012-06-13T15:31:43Z</time>
      </trkpt>
      <trkpt lat="43.2326" lon="0.07364">
        <ele>360.4</ele>
        <time>2012-06-13T15:31:50Z</time>
      </trkpt>
      <trkpt lat="43.23256" lon="0.07356">
        <ele>356.7</ele>
        <time>2012-06-13T15:31:57Z</time>
      </trkpt>
      <trkpt lat="43.23249" lon="0.07354">
        <ele>358.4</ele>
        <time>2012-06-13T15:32:01Z</time>
      </trkpt>
      <trkpt lat="43.23236" lon="0.07349">
        <ele>361.1</ele>
        <time>2012-06-13T15:32:15Z</time>
      </trkpt>
      <trkpt lat="43.2323" lon="0.07347">
        <ele>363</ele>
        <time>2012-06-13T15:32:20Z</time>
      </trkpt>
      <trkpt lat="43.23209" lon="0.07346">
        <ele>372</ele>
        <time>2012-06-13T15:32:35Z</time>
      </trkpt>
      <trkpt lat="43.23202" lon="0.07345">
        <ele>375.5</ele>
        <time>2012-06-13T15:32:41Z</time>
      </trkpt>
      <trkpt lat="43.23188" lon="0.07346">
        <ele>382.7</ele>
        <time>2012-06-13T15:32:50Z</time>
      </trkpt>
      <trkpt lat="43.23175" lon="0.07352">
        <ele>391.5</ele>
        <time>2012-06-13T15:32:57Z</time>
      </trkpt>
      <trkpt lat="43.23169" lon="0.07353">
        <ele>392.2</ele>
        <time>2012-06-13T15:33:03Z</time>
      </trkpt>
      <trkpt lat="43.23161" lon="0.07353">
        <ele>390.2</ele>
        <time>2012-06-13T15:33:09Z</time>
      </trkpt>
      <trkpt lat="43.23154" lon="0.07355">
        <ele>389.2</ele>
        <time>2012-06-13T15:33:13Z</time>
      </trkpt>
      <trkpt lat="43.23141" lon="0.07356">
        <ele>392.3</ele>
        <time>2012-06-13T15:33:35Z</time>
      </trkpt>
      <trkpt lat="43.23127" lon="0.07355">
        <ele>399.2</ele>
        <time>2012-06-13T15:33:50Z</time>
      </trkpt>
      <trkpt lat="43.23121" lon="0.07351">
        <ele>401.6</ele>
        <time>2012-06-13T15:33:56Z</time>
      </trkpt>
      <trkpt lat="43.23108" lon="0.07344">
        <ele>407.5</ele>
        <time>2012-06-13T15:34:08Z</time>
      </trkpt>
      <trkpt lat="43.23101" lon="0.07342">
        <ele>410.2</ele>
        <time>2012-06-13T15:34:13Z</time>
      </trkpt>
      <trkpt lat="43.23085" lon="0.07344">
        <ele>413.9</ele>
        <time>2012-06-13T15:34:25Z</time>
      </trkpt>
      <trkpt lat="43.23077" lon="0.0735">
        <ele>415.5</ele>
        <time>2012-06-13T15:34:28Z</time>
      </trkpt>
      <trkpt lat="43.23069" lon="0.07353">
        <ele>406.9</ele>
        <time>2012-06-13T15:34:31Z</time>
      </trkpt>
      <trkpt lat="43.23061" lon="0.07353">
        <ele>408.1</ele>
        <time>2012-06-13T15:34:35Z</time>
      </trkpt>
      <trkpt lat="43.23065" lon="0.07336">
        <ele>387.9</ele>
        <time>2012-06-13T15:34:42Z</time>
      </trkpt>
      <trkpt lat="43.23065" lon="0.0732">
        <ele>385.5</ele>
        <time>2012-06-13T15:35:16Z</time>
      </trkpt>
      <trkpt lat="43.23057" lon="0.07319">
        <ele>383</ele>
        <time>2012-06-13T15:35:21Z</time>
      </trkpt>
      <trkpt lat="43.2305" lon="0.07317">
        <ele>381.1</ele>
        <time>2012-06-13T15:35:26Z</time>
      </trkpt>
      <trkpt lat="43.23045" lon="0.07311">
        <ele>379.8</ele>
        <time>2012-06-13T15:35:34Z</time>
      </trkpt>
      <trkpt lat="43.23038" lon="0.0731">
        <ele>383</ele>
        <time>2012-06-13T15:35:41Z</time>
      </trkpt>
      <trkpt lat="43.23031" lon="0.07311">
        <ele>384</ele>
        <time>2012-06-13T15:35:46Z</time>
      </trkpt>
      <trkpt lat="43.23025" lon="0.07311">
        <ele>381.3</ele>
        <time>2012-06-13T15:35:52Z</time>
      </trkpt>
      <trkpt lat="43.23018" lon="0.07308">
        <ele>378.7</ele>
        <time>2012-06-13T15:35:57Z</time>
      </trkpt>
      <trkpt lat="43.23012" lon="0.07308">
        <ele>377.8</ele>
        <time>2012-06-13T15:36:02Z</time>
      </trkpt>
      <trkpt lat="43.23004" lon="0.07307">
        <ele>379.6</ele>
        <time>2012-06-13T15:36:07Z</time>
      </trkpt>
      <trkpt lat="43.22997" lon="0.07307">
        <ele>378.8</ele>
        <time>2012-06-13T15:36:12Z</time>
      </trkpt>
      <trkpt lat="43.22991" lon="0.07305">
        <ele>377.4</ele>
        <time>2012-06-13T15:36:17Z</time>
      </trkpt>
      <trkpt lat="43.22983" lon="0.07304">
        <ele>378</ele>
        <time>2012-06-13T15:36:23Z</time>
      </trkpt>
      <trkpt lat="43.22976" lon="0.07301">
        <ele>377.2</ele>
        <time>2012-06-13T15:36:29Z</time>
      </trkpt>
      <trkpt lat="43.2297" lon="0.07299">
        <ele>377.2</ele>
        <time>2012-06-13T15:36:35Z</time>
      </trkpt>
      <trkpt lat="43.22963" lon="0.07294">
        <ele>375.1</ele>
        <time>2012-06-13T15:36:41Z</time>
      </trkpt>
      <trkpt lat="43.22956" lon="0.0729">
        <ele>374.7</ele>
        <time>2012-06-13T15:36:47Z</time>
      </trkpt>
      <trkpt lat="43.2295" lon="0.07287">
        <ele>373.2</ele>
        <time>2012-06-13T15:36:53Z</time>
      </trkpt>
      <trkpt lat="43.22943" lon="0.07286">
        <ele>371.2</ele>
        <time>2012-06-13T15:36:59Z</time>
      </trkpt>
      <trkpt lat="43.22931" lon="0.07285">
        <ele>371</ele>
        <time>2012-06-13T15:37:19Z</time>
      </trkpt>
      <trkpt lat="43.22924" lon="0.0728">
        <ele>371.4</ele>
        <time>2012-06-13T15:37:26Z</time>
      </trkpt>
      <trkpt lat="43.22913" lon="0.07267">
        <ele>369.9</ele>
        <time>2012-06-13T15:37:33Z</time>
      </trkpt>
      <trkpt lat="43.22907" lon="0.07261">
        <ele>371.1</ele>
        <time>2012-06-13T15:37:38Z</time>
      </trkpt>
      <trkpt lat="43.22903" lon="0.07254">
        <ele>370.4</ele>
        <time>2012-06-13T15:37:46Z</time>
      </trkpt>
      <trkpt lat="43.22896" lon="0.07238">
        <ele>368.3</ele>
        <time>2012-06-13T15:37:59Z</time>
      </trkpt>
      <trkpt lat="43.22887" lon="0.07222">
        <ele>370.4</ele>
        <time>2012-06-13T15:38:09Z</time>
      </trkpt>
      <trkpt lat="43.22883" lon="0.07215">
        <ele>366.4</ele>
        <time>2012-06-13T15:38:14Z</time>
      </trkpt>
      <trkpt lat="43.22878" lon="0.07209">
        <ele>369.8</ele>
        <time>2012-06-13T15:38:27Z</time>
      </trkpt>
      <trkpt lat="43.22873" lon="0.07193">
        <ele>369.6</ele>
        <time>2012-06-13T15:38:52Z</time>
      </trkpt>
      <trkpt lat="43.22877" lon="0.07162">
        <ele>369.7</ele>
        <time>2012-06-13T15:39:02Z</time>
      </trkpt>
      <trkpt lat="43.22879" lon="0.07153">
        <ele>370.5</ele>
        <time>2012-06-13T15:39:06Z</time>
      </trkpt>
      <trkpt lat="43.2288" lon="0.07144">
        <ele>369.9</ele>
        <time>2012-06-13T15:39:23Z</time>
      </trkpt>
      <trkpt lat="43.22888" lon="0.07114">
        <ele>376.8</ele>
        <time>2012-06-13T15:39:33Z</time>
      </trkpt>
      <trkpt lat="43.22888" lon="0.07105">
        <ele>379.9</ele>
        <time>2012-06-13T15:39:38Z</time>
      </trkpt>
      <trkpt lat="43.22893" lon="0.07077">
        <ele>387.3</ele>
        <time>2012-06-13T15:40:00Z</time>
      </trkpt>
      <trkpt lat="43.22891" lon="0.07068">
        <ele>375</ele>
        <time>2012-06-13T15:40:04Z</time>
      </trkpt>
      <trkpt lat="43.22892" lon="0.07059">
        <ele>373.1</ele>
        <time>2012-06-13T15:40:09Z</time>
      </trkpt>
      <trkpt lat="43.2289" lon="0.0704">
        <ele>377.9</ele>
        <time>2012-06-13T15:40:18Z</time>
      </trkpt>
      <trkpt lat="43.22891" lon="0.07021">
        <ele>392.9</ele>
        <time>2012-06-13T15:40:25Z</time>
      </trkpt>
      <trkpt lat="43.22887" lon="0.07014">
        <ele>390.5</ele>
        <time>2012-06-13T15:40:32Z</time>
      </trkpt>
      <trkpt lat="43.22881" lon="0.07012">
        <ele>389.7</ele>
        <time>2012-06-13T15:40:38Z</time>
      </trkpt>
      <trkpt lat="43.22875" lon="0.07009">
        <ele>387.3</ele>
        <time>2012-06-13T15:40:43Z</time>
      </trkpt>
      <trkpt lat="43.22862" lon="0.07006">
        <ele>385.3</ele>
        <time>2012-06-13T15:40:51Z</time>
      </trkpt>
      <trkpt lat="43.22855" lon="0.07004">
        <ele>385.7</ele>
        <time>2012-06-13T15:40:54Z</time>
      </trkpt>
      <trkpt lat="43.22848" lon="0.07004">
        <ele>383.8</ele>
        <time>2012-06-13T15:41:01Z</time>
      </trkpt>
      <trkpt lat="43.22841" lon="0.07004">
        <ele>387.3</ele>
        <time>2012-06-13T15:41:07Z</time>
      </trkpt>
      <trkpt lat="43.22834" lon="0.07003">
        <ele>387.8</ele>
        <time>2012-06-13T15:41:12Z</time>
      </trkpt>
      <trkpt lat="43.22826" lon="0.07003">
        <ele>389.9</ele>
        <time>2012-06-13T15:41:19Z</time>
      </trkpt>
      <trkpt lat="43.22821" lon="0.06998">
        <ele>388.6</ele>
        <time>2012-06-13T15:41:25Z</time>
      </trkpt>
      <trkpt lat="43.22814" lon="0.06993">
        <ele>391.3</ele>
        <time>2012-06-13T15:41:31Z</time>
      </trkpt>
      <trkpt lat="43.22801" lon="0.06996">
        <ele>387.5</ele>
        <time>2012-06-13T15:41:48Z</time>
      </trkpt>
      <trkpt lat="43.22797" lon="0.0699">
        <ele>389.3</ele>
        <time>2012-06-13T15:41:52Z</time>
      </trkpt>
      <trkpt lat="43.2279" lon="0.06988">
        <ele>389.1</ele>
        <time>2012-06-13T15:41:56Z</time>
      </trkpt>
      <trkpt lat="43.22783" lon="0.06989">
        <ele>389.7</ele>
        <time>2012-06-13T15:42:01Z</time>
      </trkpt>
      <trkpt lat="43.22777" lon="0.06989">
        <ele>388.7</ele>
        <time>2012-06-13T15:42:10Z</time>
      </trkpt>
      <trkpt lat="43.2277" lon="0.06987">
        <ele>388.6</ele>
        <time>2012-06-13T15:42:20Z</time>
      </trkpt>
      <trkpt lat="43.22756" lon="0.06982">
        <ele>386.3</ele>
        <time>2012-06-13T15:42:40Z</time>
      </trkpt>
      <trkpt lat="43.2275" lon="0.06978">
        <ele>385.4</ele>
        <time>2012-06-13T15:42:44Z</time>
      </trkpt>
      <trkpt lat="43.22743" lon="0.06977">
        <ele>384.9</ele>
        <time>2012-06-13T15:42:49Z</time>
      </trkpt>
      <trkpt lat="43.22735" lon="0.06976">
        <ele>386.1</ele>
        <time>2012-06-13T15:42:53Z</time>
      </trkpt>
      <trkpt lat="43.22729" lon="0.06974">
        <ele>386.1</ele>
        <time>2012-06-13T15:43:07Z</time>
      </trkpt>
      <trkpt lat="43.22709" lon="0.06969">
        <ele>386.7</ele>
        <time>2012-06-13T15:43:22Z</time>
      </trkpt>
      <trkpt lat="43.22703" lon="0.06964">
        <ele>385</ele>
        <time>2012-06-13T15:43:27Z</time>
      </trkpt>
      <trkpt lat="43.22695" lon="0.06965">
        <ele>387.4</ele>
        <time>2012-06-13T15:43:32Z</time>
      </trkpt>
      <trkpt lat="43.22682" lon="0.06967">
        <ele>384.5</ele>
        <time>2012-06-13T15:43:44Z</time>
      </trkpt>
      <trkpt lat="43.22674" lon="0.06968">
        <ele>386.8</ele>
        <time>2012-06-13T15:43:51Z</time>
      </trkpt>
      <trkpt lat="43.22667" lon="0.06966">
        <ele>387.4</ele>
        <time>2012-06-13T15:43:55Z</time>
      </trkpt>
      <trkpt lat="43.2266" lon="0.06965">
        <ele>390.4</ele>
        <time>2012-06-13T15:43:59Z</time>
      </trkpt>
      <trkpt lat="43.22654" lon="0.06963">
        <ele>391.1</ele>
        <time>2012-06-13T15:44:14Z</time>
      </trkpt>
      <trkpt lat="43.22641" lon="0.06956">
        <ele>389</ele>
        <time>2012-06-13T15:44:26Z</time>
      </trkpt>
      <trkpt lat="43.22633" lon="0.06954">
        <ele>387.5</ele>
        <time>2012-06-13T15:44:30Z</time>
      </trkpt>
      <trkpt lat="43.22624" lon="0.06954">
        <ele>387.3</ele>
        <time>2012-06-13T15:44:33Z</time>
      </trkpt>
      <trkpt lat="43.22609" lon="0.06952">
        <ele>388.4</ele>
        <time>2012-06-13T15:44:40Z</time>
      </trkpt>
      <trkpt lat="43.22602" lon="0.06953">
        <ele>383.7</ele>
        <time>2012-06-13T15:44:54Z</time>
      </trkpt>
      <trkpt lat="43.22589" lon="0.06949">
        <ele>380.3</ele>
        <time>2012-06-13T15:45:04Z</time>
      </trkpt>
      <trkpt lat="43.22582" lon="0.0695">
        <ele>376.4</ele>
        <time>2012-06-13T15:45:13Z</time>
      </trkpt>
      <trkpt lat="43.22568" lon="0.0695">
        <ele>375.3</ele>
        <time>2012-06-13T15:45:35Z</time>
      </trkpt>
      <trkpt lat="43.22562" lon="0.06951">
        <ele>373.7</ele>
        <time>2012-06-13T15:45:39Z</time>
      </trkpt>
      <trkpt lat="43.22555" lon="0.06951">
        <ele>372.7</ele>
        <time>2012-06-13T15:45:43Z</time>
      </trkpt>
      <trkpt lat="43.22542" lon="0.0695">
        <ele>373.6</ele>
        <time>2012-06-13T15:45:57Z</time>
      </trkpt>
      <trkpt lat="43.22534" lon="0.06951">
        <ele>371.1</ele>
        <time>2012-06-13T15:46:02Z</time>
      </trkpt>
      <trkpt lat="43.22521" lon="0.06953">
        <ele>370.5</ele>
        <time>2012-06-13T15:46:10Z</time>
      </trkpt>
      <trkpt lat="43.22506" lon="0.06954">
        <ele>374</ele>
        <time>2012-06-13T15:46:16Z</time>
      </trkpt>
      <trkpt lat="43.22502" lon="0.0696">
        <ele>378.9</ele>
        <time>2012-06-13T15:46:21Z</time>
      </trkpt>
      <trkpt lat="43.22495" lon="0.06959">
        <ele>382.2</ele>
        <time>2012-06-13T15:46:35Z</time>
      </trkpt>
      <trkpt lat="43.22483" lon="0.06965">
        <ele>385.4</ele>
        <time>2012-06-13T15:46:44Z</time>
      </trkpt>
      <trkpt lat="43.22476" lon="0.06963">
        <ele>382.7</ele>
        <time>2012-06-13T15:46:51Z</time>
      </trkpt>
      <trkpt lat="43.22471" lon="0.06969">
        <ele>377.9</ele>
        <time>2012-06-13T15:46:56Z</time>
      </trkpt>
      <trkpt lat="43.22457" lon="0.06969">
        <ele>381.5</ele>
        <time>2012-06-13T15:47:06Z</time>
      </trkpt>
      <trkpt lat="43.2245" lon="0.06969">
        <ele>382.2</ele>
        <time>2012-06-13T15:47:13Z</time>
      </trkpt>
      <trkpt lat="43.22444" lon="0.0697">
        <ele>375.6</ele>
        <time>2012-06-13T15:47:20Z</time>
      </trkpt>
      <trkpt lat="43.22437" lon="0.06971">
        <ele>369.2</ele>
        <time>2012-06-13T15:47:25Z</time>
      </trkpt>
      <trkpt lat="43.22429" lon="0.06972">
        <ele>368.7</ele>
        <time>2012-06-13T15:47:30Z</time>
      </trkpt>
      <trkpt lat="43.22423" lon="0.06973">
        <ele>371.5</ele>
        <time>2012-06-13T15:47:36Z</time>
      </trkpt>
      <trkpt lat="43.22417" lon="0.06976">
        <ele>373.4</ele>
        <time>2012-06-13T15:47:42Z</time>
      </trkpt>
      <trkpt lat="43.2241" lon="0.0698">
        <ele>371.3</ele>
        <time>2012-06-13T15:47:48Z</time>
      </trkpt>
      <trkpt lat="43.22404" lon="0.06983">
        <ele>367.4</ele>
        <time>2012-06-13T15:47:54Z</time>
      </trkpt>
      <trkpt lat="43.22397" lon="0.06984">
        <ele>367.7</ele>
        <time>2012-06-13T15:48:01Z</time>
      </trkpt>
      <trkpt lat="43.2239" lon="0.06987">
        <ele>365.1</ele>
        <time>2012-06-13T15:48:06Z</time>
      </trkpt>
      <trkpt lat="43.22384" lon="0.06989">
        <ele>365.1</ele>
        <time>2012-06-13T15:48:12Z</time>
      </trkpt>
      <trkpt lat="43.22377" lon="0.06991">
        <ele>365.5</ele>
        <time>2012-06-13T15:48:20Z</time>
      </trkpt>
      <trkpt lat="43.2237" lon="0.06991">
        <ele>368.5</ele>
        <time>2012-06-13T15:48:29Z</time>
      </trkpt>
      <trkpt lat="43.22363" lon="0.06993">
        <ele>367.2</ele>
        <time>2012-06-13T15:48:35Z</time>
      </trkpt>
      <trkpt lat="43.22349" lon="0.06998">
        <ele>374.8</ele>
        <time>2012-06-13T15:48:57Z</time>
      </trkpt>
      <trkpt lat="43.22336" lon="0.06999">
        <ele>379.2</ele>
        <time>2012-06-13T15:49:09Z</time>
      </trkpt>
      <trkpt lat="43.22329" lon="0.07001">
        <ele>380.2</ele>
        <time>2012-06-13T15:49:14Z</time>
      </trkpt>
      <trkpt lat="43.22323" lon="0.07004">
        <ele>378.8</ele>
        <time>2012-06-13T15:49:19Z</time>
      </trkpt>
      <trkpt lat="43.22312" lon="0.0701">
        <ele>380</ele>
        <time>2012-06-13T15:49:35Z</time>
      </trkpt>
      <trkpt lat="43.22305" lon="0.07012">
        <ele>380.7</ele>
        <time>2012-06-13T15:49:42Z</time>
      </trkpt>
      <trkpt lat="43.22298" lon="0.07015">
        <ele>375.9</ele>
        <time>2012-06-13T15:49:49Z</time>
      </trkpt>
      <trkpt lat="43.22291" lon="0.07017">
        <ele>371.3</ele>
        <time>2012-06-13T15:49:56Z</time>
      </trkpt>
      <trkpt lat="43.22285" lon="0.07017">
        <ele>371.3</ele>
        <time>2012-06-13T15:50:01Z</time>
      </trkpt>
      <trkpt lat="43.22277" lon="0.07017">
        <ele>370</ele>
        <time>2012-06-13T15:50:07Z</time>
      </trkpt>
      <trkpt lat="43.2227" lon="0.07018">
        <ele>369.2</ele>
        <time>2012-06-13T15:50:12Z</time>
      </trkpt>
      <trkpt lat="43.22263" lon="0.07019">
        <ele>368.2</ele>
        <time>2012-06-13T15:50:18Z</time>
      </trkpt>
      <trkpt lat="43.22256" lon="0.0702">
        <ele>369.5</ele>
        <time>2012-06-13T15:50:25Z</time>
      </trkpt>
      <trkpt lat="43.22249" lon="0.07022">
        <ele>368.8</ele>
        <time>2012-06-13T15:50:32Z</time>
      </trkpt>
      <trkpt lat="43.22243" lon="0.07026">
        <ele>368.6</ele>
        <time>2012-06-13T15:50:38Z</time>
      </trkpt>
      <trkpt lat="43.22237" lon="0.07029">
        <ele>372</ele>
        <time>2012-06-13T15:50:49Z</time>
      </trkpt>
      <trkpt lat="43.22229" lon="0.07026">
        <ele>371.2</ele>
        <time>2012-06-13T15:50:57Z</time>
      </trkpt>
      <trkpt lat="43.22223" lon="0.07027">
        <ele>372.7</ele>
        <time>2012-06-13T15:51:01Z</time>
      </trkpt>
      <trkpt lat="43.22216" lon="0.07029">
        <ele>372.8</ele>
        <time>2012-06-13T15:51:05Z</time>
      </trkpt>
      <trkpt lat="43.2221" lon="0.07031">
        <ele>366.9</ele>
        <time>2012-06-13T15:51:11Z</time>
      </trkpt>
      <trkpt lat="43.22203" lon="0.07033">
        <ele>361</ele>
        <time>2012-06-13T15:51:16Z</time>
      </trkpt>
      <trkpt lat="43.22195" lon="0.07034">
        <ele>361.8</ele>
        <time>2012-06-13T15:51:22Z</time>
      </trkpt>
      <trkpt lat="43.22188" lon="0.07035">
        <ele>362.3</ele>
        <time>2012-06-13T15:51:28Z</time>
      </trkpt>
      <trkpt lat="43.22182" lon="0.07036">
        <ele>361.7</ele>
        <time>2012-06-13T15:51:33Z</time>
      </trkpt>
      <trkpt lat="43.22174" lon="0.07039">
        <ele>365.3</ele>
        <time>2012-06-13T15:51:38Z</time>
      </trkpt>
      <trkpt lat="43.22168" lon="0.0704">
        <ele>367.5</ele>
        <time>2012-06-13T15:51:43Z</time>
      </trkpt>
      <trkpt lat="43.22161" lon="0.07042">
        <ele>368.9</ele>
        <time>2012-06-13T15:51:49Z</time>
      </trkpt>
      <trkpt lat="43.22153" lon="0.07044">
        <ele>368.4</ele>
        <time>2012-06-13T15:51:55Z</time>
      </trkpt>
      <trkpt lat="43.22146" lon="0.07045">
        <ele>366.5</ele>
        <time>2012-06-13T15:52:03Z</time>
      </trkpt>
      <trkpt lat="43.2214" lon="0.07046">
        <ele>368.3</ele>
        <time>2012-06-13T15:52:08Z</time>
      </trkpt>
      <trkpt lat="43.22127" lon="0.07051">
        <ele>368.3</ele>
        <time>2012-06-13T15:52:18Z</time>
      </trkpt>
      <trkpt lat="43.2212" lon="0.07052">
        <ele>368.5</ele>
        <time>2012-06-13T15:52:23Z</time>
      </trkpt>
      <trkpt lat="43.22107" lon="0.07054">
        <ele>368.8</ele>
        <time>2012-06-13T15:52:31Z</time>
      </trkpt>
      <trkpt lat="43.22099" lon="0.07054">
        <ele>368.7</ele>
        <time>2012-06-13T15:52:37Z</time>
      </trkpt>
      <trkpt lat="43.22093" lon="0.07058">
        <ele>368.8</ele>
        <time>2012-06-13T15:52:43Z</time>
      </trkpt>
      <trkpt lat="43.22087" lon="0.07062">
        <ele>375.2</ele>
        <time>2012-06-13T15:52:56Z</time>
      </trkpt>
      <trkpt lat="43.22073" lon="0.07063">
        <ele>375.9</ele>
        <time>2012-06-13T15:53:11Z</time>
      </trkpt>
      <trkpt lat="43.22054" lon="0.07075">
        <ele>376.9</ele>
        <time>2012-06-13T15:53:29Z</time>
      </trkpt>
      <trkpt lat="43.22041" lon="0.07073">
        <ele>376.2</ele>
        <time>2012-06-13T15:53:35Z</time>
      </trkpt>
      <trkpt lat="43.22034" lon="0.07076">
        <ele>376.2</ele>
        <time>2012-06-13T15:53:41Z</time>
      </trkpt>
      <trkpt lat="43.22021" lon="0.07079">
        <ele>380.5</ele>
        <time>2012-06-13T15:53:52Z</time>
      </trkpt>
      <trkpt lat="43.22016" lon="0.07072">
        <ele>379.5</ele>
        <time>2012-06-13T15:53:56Z</time>
      </trkpt>
      <trkpt lat="43.22003" lon="0.07081">
        <ele>372.5</ele>
        <time>2012-06-13T15:54:12Z</time>
      </trkpt>
      <trkpt lat="43.21996" lon="0.07084">
        <ele>372.8</ele>
        <time>2012-06-13T15:54:16Z</time>
      </trkpt>
      <trkpt lat="43.21989" lon="0.07086">
        <ele>372.8</ele>
        <time>2012-06-13T15:54:21Z</time>
      </trkpt>
      <trkpt lat="43.21976" lon="0.0709">
        <ele>376.1</ele>
        <time>2012-06-13T15:54:35Z</time>
      </trkpt>
      <trkpt lat="43.2197" lon="0.07093">
        <ele>378</ele>
        <time>2012-06-13T15:54:39Z</time>
      </trkpt>
      <trkpt lat="43.21958" lon="0.07098">
        <ele>375.9</ele>
        <time>2012-06-13T15:54:56Z</time>
      </trkpt>
      <trkpt lat="43.21953" lon="0.07105">
        <ele>374.4</ele>
        <time>2012-06-13T15:55:00Z</time>
      </trkpt>
      <trkpt lat="43.21947" lon="0.0711">
        <ele>372.4</ele>
        <time>2012-06-13T15:55:06Z</time>
      </trkpt>
      <trkpt lat="43.21943" lon="0.07117">
        <ele>372.3</ele>
        <time>2012-06-13T15:55:11Z</time>
      </trkpt>
      <trkpt lat="43.21938" lon="0.07125">
        <ele>371.6</ele>
        <time>2012-06-13T15:55:17Z</time>
      </trkpt>
      <trkpt lat="43.21934" lon="0.07133">
        <ele>373.1</ele>
        <time>2012-06-13T15:55:23Z</time>
      </trkpt>
      <trkpt lat="43.2193" lon="0.07141">
        <ele>374.5</ele>
        <time>2012-06-13T15:55:29Z</time>
      </trkpt>
      <trkpt lat="43.21925" lon="0.07148">
        <ele>375.9</ele>
        <time>2012-06-13T15:55:34Z</time>
      </trkpt>
      <trkpt lat="43.2192" lon="0.07154">
        <ele>373</ele>
        <time>2012-06-13T15:55:41Z</time>
      </trkpt>
      <trkpt lat="43.21914" lon="0.07154">
        <ele>371.5</ele>
        <time>2012-06-13T15:55:56Z</time>
      </trkpt>
      <trkpt lat="43.21907" lon="0.07158">
        <ele>372.4</ele>
        <time>2012-06-13T15:56:11Z</time>
      </trkpt>
      <trkpt lat="43.21905" lon="0.07167">
        <ele>372.2</ele>
        <time>2012-06-13T15:56:18Z</time>
      </trkpt>
      <trkpt lat="43.21905" lon="0.07177">
        <ele>370.8</ele>
        <time>2012-06-13T15:56:24Z</time>
      </trkpt>
      <trkpt lat="43.21904" lon="0.07186">
        <ele>373.3</ele>
        <time>2012-06-13T15:56:30Z</time>
      </trkpt>
      <trkpt lat="43.21904" lon="0.07196">
        <ele>372.7</ele>
        <time>2012-06-13T15:56:37Z</time>
      </trkpt>
      <trkpt lat="43.21902" lon="0.07204">
        <ele>371.9</ele>
        <time>2012-06-13T15:56:44Z</time>
      </trkpt>
      <trkpt lat="43.219" lon="0.07213">
        <ele>370.1</ele>
        <time>2012-06-13T15:56:53Z</time>
      </trkpt>
      <trkpt lat="43.21899" lon="0.07222">
        <ele>371.2</ele>
        <time>2012-06-13T15:56:59Z</time>
      </trkpt>
      <trkpt lat="43.21899" lon="0.07232">
        <ele>366.5</ele>
        <time>2012-06-13T15:57:07Z</time>
      </trkpt>
      <trkpt lat="43.21896" lon="0.07241">
        <ele>370.5</ele>
        <time>2012-06-13T15:57:15Z</time>
      </trkpt>
      <trkpt lat="43.21893" lon="0.07251">
        <ele>375.4</ele>
        <time>2012-06-13T15:57:19Z</time>
      </trkpt>
      <trkpt lat="43.21892" lon="0.0726">
        <ele>377.5</ele>
        <time>2012-06-13T15:57:24Z</time>
      </trkpt>
      <trkpt lat="43.2189" lon="0.0728">
        <ele>381.2</ele>
        <time>2012-06-13T15:57:34Z</time>
      </trkpt>
      <trkpt lat="43.21889" lon="0.07289">
        <ele>382.7</ele>
        <time>2012-06-13T15:57:39Z</time>
      </trkpt>
      <trkpt lat="43.21887" lon="0.07298">
        <ele>383.6</ele>
        <time>2012-06-13T15:57:44Z</time>
      </trkpt>
      <trkpt lat="43.21886" lon="0.07308">
        <ele>376.8</ele>
        <time>2012-06-13T15:58:11Z</time>
      </trkpt>
      <trkpt lat="43.21885" lon="0.07317">
        <ele>378.8</ele>
        <time>2012-06-13T15:58:16Z</time>
      </trkpt>
      <trkpt lat="43.21886" lon="0.07326">
        <ele>373.4</ele>
        <time>2012-06-13T15:58:23Z</time>
      </trkpt>
      <trkpt lat="43.21887" lon="0.07335">
        <ele>365.5</ele>
        <time>2012-06-13T15:58:31Z</time>
      </trkpt>
      <trkpt lat="43.21885" lon="0.07344">
        <ele>366.6</ele>
        <time>2012-06-13T15:58:38Z</time>
      </trkpt>
      <trkpt lat="43.21885" lon="0.07353">
        <ele>366.6</ele>
        <time>2012-06-13T15:58:43Z</time>
      </trkpt>
      <trkpt lat="43.21883" lon="0.07363">
        <ele>369</ele>
        <time>2012-06-13T15:58:48Z</time>
      </trkpt>
      <trkpt lat="43.21883" lon="0.07372">
        <ele>371.7</ele>
        <time>2012-06-13T15:58:53Z</time>
      </trkpt>
      <trkpt lat="43.21881" lon="0.07382">
        <ele>374</ele>
        <time>2012-06-13T15:58:57Z</time>
      </trkpt>
      <trkpt lat="43.21883" lon="0.0739">
        <ele>366.9</ele>
        <time>2012-06-13T15:59:08Z</time>
      </trkpt>
      <trkpt lat="43.21882" lon="0.07401">
        <ele>368</ele>
        <time>2012-06-13T15:59:14Z</time>
      </trkpt>
      <trkpt lat="43.21881" lon="0.0741">
        <ele>369.7</ele>
        <time>2012-06-13T15:59:18Z</time>
      </trkpt>
      <trkpt lat="43.21881" lon="0.07421">
        <ele>370</ele>
        <time>2012-06-13T15:59:23Z</time>
      </trkpt>
      <trkpt lat="43.21881" lon="0.0743">
        <ele>370</ele>
        <time>2012-06-13T15:59:28Z</time>
      </trkpt>
      <trkpt lat="43.21881" lon="0.0744">
        <ele>372</ele>
        <time>2012-06-13T15:59:34Z</time>
      </trkpt>
      <trkpt lat="43.21879" lon="0.07449">
        <ele>374.7</ele>
        <time>2012-06-13T15:59:38Z</time>
      </trkpt>
      <trkpt lat="43.21879" lon="0.07459">
        <ele>376.7</ele>
        <time>2012-06-13T15:59:43Z</time>
      </trkpt>
      <trkpt lat="43.21882" lon="0.07468">
        <ele>373</ele>
        <time>2012-06-13T15:59:50Z</time>
      </trkpt>
      <trkpt lat="43.21881" lon="0.07479">
        <ele>377.6</ele>
        <time>2012-06-13T15:59:56Z</time>
      </trkpt>
      <trkpt lat="43.21879" lon="0.07488">
        <ele>380.6</ele>
        <time>2012-06-13T16:00:00Z</time>
      </trkpt>
      <trkpt lat="43.21878" lon="0.07497">
        <ele>382.7</ele>
        <time>2012-06-13T16:00:05Z</time>
      </trkpt>
      <trkpt lat="43.21878" lon="0.07506">
        <ele>382</ele>
        <time>2012-06-13T16:00:11Z</time>
      </trkpt>
      <trkpt lat="43.2188" lon="0.07516">
        <ele>381.5</ele>
        <time>2012-06-13T16:00:18Z</time>
      </trkpt>
      <trkpt lat="43.21882" lon="0.07525">
        <ele>381.6</ele>
        <time>2012-06-13T16:00:24Z</time>
      </trkpt>
      <trkpt lat="43.21882" lon="0.07534">
        <ele>383.6</ele>
        <time>2012-06-13T16:00:29Z</time>
      </trkpt>
      <trkpt lat="43.21883" lon="0.07543">
        <ele>384</ele>
        <time>2012-06-13T16:00:35Z</time>
      </trkpt>
      <trkpt lat="43.21883" lon="0.07553">
        <ele>385.5</ele>
        <time>2012-06-13T16:00:41Z</time>
      </trkpt>
      <trkpt lat="43.21885" lon="0.07562">
        <ele>380.8</ele>
        <time>2012-06-13T16:00:50Z</time>
      </trkpt>
      <trkpt lat="43.21884" lon="0.07572">
        <ele>383</ele>
        <time>2012-06-13T16:00:56Z</time>
      </trkpt>
      <trkpt lat="43.21882" lon="0.07583">
        <ele>387</ele>
        <time>2012-06-13T16:01:01Z</time>
      </trkpt>
      <trkpt lat="43.21881" lon="0.07592">
        <ele>390.1</ele>
        <time>2012-06-13T16:01:06Z</time>
      </trkpt>
      <trkpt lat="43.21881" lon="0.07601">
        <ele>390.1</ele>
        <time>2012-06-13T16:01:11Z</time>
      </trkpt>
      <trkpt lat="43.21882" lon="0.07611">
        <ele>391</ele>
        <time>2012-06-13T16:01:17Z</time>
      </trkpt>
      <trkpt lat="43.21884" lon="0.07621">
        <ele>391</ele>
        <time>2012-06-13T16:01:23Z</time>
      </trkpt>
      <trkpt lat="43.21884" lon="0.0763">
        <ele>391.9</ele>
        <time>2012-06-13T16:01:29Z</time>
      </trkpt>
      <trkpt lat="43.21883" lon="0.07639">
        <ele>390</ele>
        <time>2012-06-13T16:01:38Z</time>
      </trkpt>
      <trkpt lat="43.21889" lon="0.07644">
        <ele>389.5</ele>
        <time>2012-06-13T16:01:45Z</time>
      </trkpt>
      <trkpt lat="43.21893" lon="0.07651">
        <ele>385.8</ele>
        <time>2012-06-13T16:01:51Z</time>
      </trkpt>
      <trkpt lat="43.21895" lon="0.07659">
        <ele>383.4</ele>
        <time>2012-06-13T16:01:57Z</time>
      </trkpt>
      <trkpt lat="43.21895" lon="0.07669">
        <ele>384.5</ele>
        <time>2012-06-13T16:02:03Z</time>
      </trkpt>
      <trkpt lat="43.21899" lon="0.07676">
        <ele>381</ele>
        <time>2012-06-13T16:02:08Z</time>
      </trkpt>
      <trkpt lat="43.21902" lon="0.07684">
        <ele>379.9</ele>
        <time>2012-06-13T16:02:14Z</time>
      </trkpt>
      <trkpt lat="43.21904" lon="0.07694">
        <ele>379</ele>
        <time>2012-06-13T16:02:21Z</time>
      </trkpt>
      <trkpt lat="43.21904" lon="0.07703">
        <ele>377.5</ele>
        <time>2012-06-13T16:02:27Z</time>
      </trkpt>
      <trkpt lat="43.21901" lon="0.07712">
        <ele>379.1</ele>
        <time>2012-06-13T16:02:33Z</time>
      </trkpt>
      <trkpt lat="43.21901" lon="0.07722">
        <ele>382.4</ele>
        <time>2012-06-13T16:02:38Z</time>
      </trkpt>
      <trkpt lat="43.21902" lon="0.07731">
        <ele>386.7</ele>
        <time>2012-06-13T16:02:42Z</time>
      </trkpt>
      <trkpt lat="43.21905" lon="0.07739">
        <ele>385.7</ele>
        <time>2012-06-13T16:02:47Z</time>
      </trkpt>
      <trkpt lat="43.21907" lon="0.07747">
        <ele>386</ele>
        <time>2012-06-13T16:02:53Z</time>
      </trkpt>
      <trkpt lat="43.21908" lon="0.07757">
        <ele>389.5</ele>
        <time>2012-06-13T16:02:58Z</time>
      </trkpt>
      <trkpt lat="43.21908" lon="0.07766">
        <ele>391.6</ele>
        <time>2012-06-13T16:03:03Z</time>
      </trkpt>
      <trkpt lat="43.21909" lon="0.07776">
        <ele>392.9</ele>
        <time>2012-06-13T16:03:08Z</time>
      </trkpt>
      <trkpt lat="43.2191" lon="0.07786">
        <ele>394.5</ele>
        <time>2012-06-13T16:03:14Z</time>
      </trkpt>
      <trkpt lat="43.21911" lon="0.07796">
        <ele>393.6</ele>
        <time>2012-06-13T16:03:21Z</time>
      </trkpt>
      <trkpt lat="43.21914" lon="0.07805">
        <ele>393.6</ele>
        <time>2012-06-13T16:03:27Z</time>
      </trkpt>
      <trkpt lat="43.21915" lon="0.07814">
        <ele>394.3</ele>
        <time>2012-06-13T16:03:32Z</time>
      </trkpt>
      <trkpt lat="43.21916" lon="0.07824">
        <ele>396</ele>
        <time>2012-06-13T16:03:38Z</time>
      </trkpt>
      <trkpt lat="43.21919" lon="0.07833">
        <ele>389.9</ele>
        <time>2012-06-13T16:03:47Z</time>
      </trkpt>
      <trkpt lat="43.21925" lon="0.07837">
        <ele>378.8</ele>
        <time>2012-06-13T16:03:58Z</time>
      </trkpt>
      <trkpt lat="43.21931" lon="0.07842">
        <ele>375.1</ele>
        <time>2012-06-13T16:04:04Z</time>
      </trkpt>
      <trkpt lat="43.21933" lon="0.07851">
        <ele>373.7</ele>
        <time>2012-06-13T16:04:11Z</time>
      </trkpt>
      <trkpt lat="43.21951" lon="0.07849">
        <ele>370.7</ele>
        <time>2012-06-13T16:04:25Z</time>
      </trkpt>
      <trkpt lat="43.21958" lon="0.07853">
        <ele>370.5</ele>
        <time>2012-06-13T16:04:32Z</time>
      </trkpt>
      <trkpt lat="43.21953" lon="0.07859">
        <ele>369.7</ele>
        <time>2012-06-13T16:04:44Z</time>
      </trkpt>
      <trkpt lat="43.21948" lon="0.07866">
        <ele>368.8</ele>
        <time>2012-06-13T16:04:52Z</time>
      </trkpt>
      <trkpt lat="43.21945" lon="0.07875">
        <ele>373.8</ele>
        <time>2012-06-13T16:04:56Z</time>
      </trkpt>
      <trkpt lat="43.21952" lon="0.0786">
        <ele>372.1</ele>
        <time>2012-06-13T16:06:24Z</time>
      </trkpt>
      <trkpt lat="43.21959" lon="0.07855">
        <ele>373.5</ele>
        <time>2012-06-13T16:06:30Z</time>
      </trkpt>
      <trkpt lat="43.21968" lon="0.07868">
        <ele>370.8</ele>
        <time>2012-06-13T16:06:55Z</time>
      </trkpt>
      <trkpt lat="43.21975" lon="0.07865">
        <ele>375.2</ele>
        <time>2012-06-13T16:07:02Z</time>
      </trkpt>
      <trkpt lat="43.21975" lon="0.07865">
        <ele>323</ele>
        <time>2012-06-13T16:09:24Z</time>
      </trkpt>
    </trkseg>
  </trk>
</gpx>